createdAt,value
2022-08-26T00:02:35.345Z,2.58
2022-08-26T00:05:37.827Z,2.53
2022-08-26T00:08:40.823Z,2.65
2022-08-26T00:11:45.429Z,2.22
2022-08-26T00:14:47.625Z,2.60
2022-08-26T00:17:51.211Z,2.40
2022-08-26T00:20:55.130Z,2.53
2022-08-26T00:23:57.498Z,1.88
2022-08-26T00:26:59.638Z,2.10
2022-08-26T00:30:05.906Z,2.33
2022-08-26T00:33:08.352Z,2.47
2022-08-26T00:36:19.857Z,2.42
2022-08-26T00:39:22.994Z,2.05
2022-08-26T00:42:25.107Z,2.35
2022-08-26T00:45:38.204Z,2.17
2022-08-26T00:48:44.006Z,2.42
2022-08-26T00:51:53.593Z,2.40
2022-08-26T00:55:07.538Z,2.10
2022-08-26T00:58:09.631Z,2.72
2022-08-26T01:01:12.184Z,2.35
2022-08-26T01:04:19.534Z,1.92
2022-08-26T01:07:21.918Z,2.47
2022-08-26T01:10:29.901Z,2.20
2022-08-26T01:13:32.793Z,2.58
2022-08-26T01:16:37.749Z,2.25
2022-08-26T01:20:12.632Z,2.28
2022-08-26T01:23:16.262Z,2.83
2022-08-26T01:26:34.088Z,2.67
2022-08-26T01:29:40.719Z,2.53
2022-08-26T01:32:44.200Z,2.50
2022-08-26T01:35:48.140Z,2.03
2022-08-26T01:38:51.392Z,2.05
2022-08-26T01:41:57.132Z,2.40
2022-08-26T01:45:11.599Z,2.17
2022-08-26T01:48:21.084Z,2.20
2022-08-26T01:51:26.562Z,2.38
2022-08-26T01:54:28.799Z,2.38
2022-08-26T01:57:31.883Z,2.15
2022-08-26T02:00:36.096Z,2.33
2022-08-26T02:03:53.776Z,2.22
2022-08-26T02:06:57.160Z,2.63
2022-08-26T02:10:01.423Z,1.90
2022-08-26T02:13:09.615Z,2.40
2022-08-26T02:16:15.622Z,2.42
2022-08-26T02:19:23.999Z,2.72
2022-08-26T02:22:26.895Z,2.92
2022-08-26T02:25:40.446Z,2.15
2022-08-26T02:28:51.457Z,2.58
2022-08-26T02:31:55.925Z,2.50
2022-08-26T02:34:58.133Z,2.30
2022-08-26T02:38:00.657Z,1.63
2022-08-26T02:41:03.893Z,2.22
2022-08-26T02:44:07.318Z,2.40
2022-08-26T02:47:09.457Z,2.40
2022-08-26T02:50:11.754Z,3.40
2022-08-26T02:53:14.309Z,2.50
2022-08-26T02:56:17.061Z,2.08
2022-08-26T02:59:19.127Z,2.00
2022-08-26T03:02:27.664Z,2.33
2022-08-26T03:05:30.574Z,2.45
2022-08-26T03:08:32.613Z,2.40
2022-08-26T03:11:36.626Z,2.60
2022-08-26T03:14:38.902Z,1.92
2022-08-26T03:17:41.033Z,2.30
2022-08-26T03:20:44.003Z,1.95
2022-08-26T03:23:46.815Z,2.15
2022-08-26T03:26:52.956Z,2.05
2022-08-26T03:30:14.086Z,2.30
2022-08-26T03:33:17.124Z,2.17
2022-08-26T03:36:19.883Z,2.30
2022-08-26T03:39:21.913Z,2.72
2022-08-26T03:42:26.155Z,2.70
2022-08-26T03:45:28.286Z,2.28
2022-08-26T03:48:30.388Z,2.50
2022-08-26T03:51:33.620Z,2.50
2022-08-26T03:54:36.545Z,2.45
2022-08-26T03:57:38.658Z,2.72
2022-08-26T04:00:40.746Z,2.30
2022-08-26T04:03:57.789Z,2.33
2022-08-26T04:07:02.203Z,2.25
2022-08-26T04:10:04.581Z,2.35
2022-08-26T04:13:06.932Z,2.47
2022-08-26T04:16:09.205Z,2.45
2022-08-26T04:19:14.548Z,3.03
2022-08-26T04:22:24.096Z,2.70
2022-08-26T04:25:27.043Z,2.38
2022-08-26T04:28:29.935Z,2.55
2022-08-26T04:31:34.715Z,3.30
2022-08-26T04:34:37.895Z,3.05
2022-08-26T04:37:44.069Z,3.20
2022-08-26T04:40:47.158Z,2.72
2022-08-26T04:43:50.433Z,3.35
2022-08-26T04:46:54.903Z,2.65
2022-08-26T04:49:57.764Z,3.20
2022-08-26T04:53:00.400Z,2.58
2022-08-26T04:56:02.744Z,2.63
2022-08-26T04:59:16.716Z,2.97
2022-08-26T05:02:19.960Z,2.85
2022-08-26T05:05:22.537Z,2.50
2022-08-26T05:08:25.199Z,2.50
2022-08-26T05:11:27.906Z,3.08
2022-08-26T05:14:31.242Z,2.42
2022-08-26T05:17:33.490Z,2.17
2022-08-26T05:20:43.915Z,2.80
2022-08-26T05:23:48.405Z,2.80
2022-08-26T05:26:51.588Z,3.30
2022-08-26T05:29:57.566Z,2.13
2022-08-26T05:32:59.877Z,2.10
2022-08-26T05:36:07.979Z,2.72
2022-08-26T05:39:11.264Z,2.08
2022-08-26T05:42:13.469Z,2.63
2022-08-26T05:45:15.739Z,2.53
2022-08-26T05:48:22.715Z,2.85
2022-08-26T05:51:26.765Z,2.50
2022-08-26T05:54:34.941Z,2.72
2022-08-26T05:57:42.244Z,2.40
2022-08-26T06:03:51.936Z,2.65
2022-08-26T06:06:53.994Z,2.45
2022-08-26T06:10:09.939Z,2.60
2022-08-26T06:13:20.690Z,3.13
2022-08-26T06:16:24.671Z,3.13
2022-08-26T06:19:33.155Z,2.70
2022-08-26T06:22:55.146Z,2.25
2022-08-26T06:25:57.894Z,2.08
2022-08-26T06:29:00.520Z,2.85
2022-08-26T06:32:05.358Z,3.03
2022-08-26T06:35:12.252Z,2.60
2022-08-26T06:38:15.739Z,3.75
2022-08-26T06:41:20.258Z,2.60
2022-08-26T06:44:22.667Z,2.10
2022-08-26T06:47:24.872Z,2.83
2022-08-26T06:50:26.963Z,3.60
2022-08-26T06:53:29.566Z,3.05
2022-08-26T06:56:40.843Z,2.83
2022-08-26T06:59:42.925Z,2.72
2022-08-26T07:02:47.001Z,2.85
2022-08-26T07:05:49.650Z,3.63
2022-08-26T07:09:05.059Z,2.90
2022-08-26T07:12:07.472Z,3.50
2022-08-26T07:15:10.411Z,3.30
2022-08-26T07:18:12.460Z,2.40
2022-08-26T07:21:18.323Z,3.05
2022-08-26T07:24:20.967Z,2.65
2022-08-26T07:27:23.370Z,4.00
2022-08-26T07:30:26.807Z,3.65
2022-08-26T07:33:29.897Z,2.63
2022-08-26T07:36:33.153Z,4.03
2022-08-26T07:39:35.503Z,3.88
2022-08-26T07:42:40.158Z,2.97
2022-08-26T07:45:42.819Z,3.35
2022-08-26T07:48:46.141Z,3.58
2022-08-26T07:51:49.876Z,3.47
2022-08-26T07:54:51.859Z,3.40
2022-08-26T07:57:54.129Z,3.42
2022-08-26T08:00:56.623Z,4.00
2022-08-26T08:03:59.060Z,3.50
2022-08-26T08:07:01.125Z,3.03
2022-08-26T08:10:09.747Z,2.92
2022-08-26T08:13:14.616Z,3.33
2022-08-26T08:16:17.093Z,2.90
2022-08-26T08:19:19.204Z,4.18
2022-08-26T08:22:23.766Z,3.10
2022-08-26T08:25:26.961Z,3.05
2022-08-26T08:28:29.184Z,3.33
2022-08-26T08:34:57.706Z,3.33
2022-08-26T08:37:59.634Z,3.63
2022-08-26T08:41:04.215Z,3.47
2022-08-26T08:44:20.188Z,4.03
2022-08-26T08:47:36.842Z,3.10
2022-08-26T08:50:50.827Z,3.33
2022-08-26T08:53:55.486Z,3.90
2022-08-26T08:57:16.556Z,4.38
2022-08-26T09:00:19.888Z,2.95
2022-08-26T09:03:35.462Z,3.10
2022-08-26T09:06:37.550Z,3.20
2022-08-26T09:09:51.631Z,2.90
2022-08-26T09:12:54.578Z,4.05
2022-08-26T09:16:25.021Z,2.97
2022-08-26T09:19:52.731Z,5.20
2022-08-26T09:22:57.559Z,3.33
2022-08-26T09:26:25.879Z,3.67
2022-08-26T09:29:40.990Z,3.53
2022-08-26T09:32:44.554Z,3.25
2022-08-26T09:36:24.841Z,2.97
2022-08-26T09:39:39.099Z,2.85
2022-08-26T09:42:41.123Z,3.10
2022-08-26T09:45:50.642Z,3.35
2022-08-26T09:48:54.219Z,2.92
2022-08-26T09:52:15.655Z,2.60
2022-08-26T09:55:23.813Z,3.15
2022-08-26T09:58:41.996Z,3.95
2022-08-26T10:01:44.896Z,2.95
2022-08-26T10:04:56.952Z,3.92
2022-08-26T10:07:59.763Z,4.13
2022-08-26T10:11:16.339Z,2.90
2022-08-26T10:14:25.649Z,2.25
2022-08-26T10:17:34.384Z,3.17
2022-08-26T10:20:50.007Z,3.30
2022-08-26T10:23:57.496Z,3.75
2022-08-26T10:27:27.567Z,3.22
2022-08-26T10:30:38.213Z,2.65
2022-08-26T10:33:40.465Z,2.85
2022-08-26T10:37:14.459Z,3.38
2022-08-26T10:40:24.829Z,3.25
2022-08-26T10:43:36.128Z,2.78
2022-08-26T10:46:50.229Z,2.60
2022-08-26T10:49:57.597Z,3.03
2022-08-26T10:53:08.848Z,3.35
2022-08-26T11:00:28.993Z,3.08
2022-08-26T11:03:43.919Z,3.13
2022-08-26T11:06:46.696Z,2.95
2022-08-26T11:09:49.958Z,2.67
2022-08-26T11:13:07.345Z,2.72
2022-08-26T11:16:09.715Z,3.58
2022-08-26T11:19:45.575Z,3.08
2022-08-26T11:22:55.317Z,3.17
2022-08-26T11:26:36.044Z,2.67
2022-08-26T11:30:08.454Z,4.03
2022-08-26T11:33:44.262Z,4.32
2022-08-26T11:36:46.376Z,5.28
2022-08-26T11:39:55.566Z,4.47
2022-08-26T11:43:05.844Z,3.33
2022-08-26T11:46:11.454Z,3.22
2022-08-26T11:49:14.851Z,3.55
2022-08-26T11:52:22.261Z,5.90
2022-08-26T11:55:24.344Z,6.13
2022-08-26T11:58:28.237Z,3.80
2022-08-26T12:01:33.686Z,5.82
2022-08-26T12:04:41.168Z,3.92
2022-08-26T12:07:43.391Z,5.05
2022-08-26T12:10:48.320Z,4.90
2022-08-26T12:14:00.218Z,4.75
2022-08-26T12:17:26.151Z,5.57
2022-08-26T12:20:46.026Z,5.00
2022-08-26T12:23:51.168Z,4.80
2022-08-26T12:27:14.634Z,3.67
2022-08-26T12:30:21.013Z,3.63
2022-08-26T12:33:23.432Z,4.47
2022-08-26T12:36:31.540Z,5.20
2022-08-26T12:42:42.139Z,4.43
2022-08-26T12:45:56.213Z,3.30
2022-08-26T12:49:01.374Z,3.83
2022-08-26T12:52:05.409Z,4.80
2022-08-26T12:55:20.630Z,4.90
2022-08-26T12:58:27.562Z,5.55
2022-08-26T13:01:39.287Z,4.72
2022-08-26T13:04:43.406Z,4.43
2022-08-26T13:08:08.963Z,3.53
2022-08-26T13:11:10.880Z,4.38
2022-08-26T13:14:23.726Z,4.97
2022-08-26T13:17:28.028Z,4.15
2022-08-26T13:20:30.607Z,5.07
2022-08-26T13:23:32.601Z,4.25
2022-08-26T13:26:35.619Z,4.65
2022-08-26T13:29:38.295Z,5.93
2022-08-26T13:32:41.206Z,4.03
2022-08-26T13:35:45.302Z,4.55
2022-08-26T13:38:48.328Z,4.82
2022-08-26T13:41:54.485Z,5.50
2022-08-26T13:44:58.190Z,4.43
2022-08-26T13:48:00.634Z,5.13
2022-08-26T13:51:03.250Z,3.75
2022-08-26T13:54:10.331Z,4.50
2022-08-26T13:57:12.385Z,3.58
2022-08-26T14:00:15.495Z,4.72
2022-08-26T14:03:18.231Z,4.45
2022-08-26T14:06:21.355Z,3.25
2022-08-26T14:09:23.335Z,4.40
2022-08-26T14:12:25.458Z,5.30
2022-08-26T14:15:28.030Z,4.57
2022-08-26T14:18:41.515Z,5.63
2022-08-26T14:21:44.549Z,5.95
2022-08-26T14:24:46.695Z,4.88
2022-08-26T14:27:55.486Z,4.82
2022-08-26T14:30:58.524Z,4.57
2022-08-26T14:34:05.074Z,5.93
2022-08-26T14:37:08.182Z,5.03
2022-08-26T14:40:14.031Z,4.07
2022-08-26T14:43:16.311Z,4.40
2022-08-26T14:46:18.634Z,5.93
2022-08-26T14:49:22.269Z,4.80
2022-08-26T14:52:24.417Z,5.72
2022-08-26T14:55:27.611Z,5.72
2022-08-26T14:58:34.813Z,4.10
2022-08-26T15:01:37.748Z,4.20
2022-08-26T15:04:40.760Z,4.10
2022-08-26T15:07:42.725Z,5.00
2022-08-26T15:10:44.940Z,5.57
2022-08-26T15:13:47.536Z,5.72
2022-08-26T15:16:52.375Z,4.88
2022-08-26T15:19:54.635Z,4.55
2022-08-26T15:22:57.560Z,5.82
2022-08-26T15:26:04.425Z,4.73
2022-08-26T15:29:06.747Z,4.43
2022-08-26T15:32:09.046Z,3.65
2022-08-26T15:35:11.219Z,5.03
2022-08-26T15:38:13.677Z,4.50
2022-08-26T15:41:15.670Z,5.03
2022-08-26T15:44:17.837Z,6.15
2022-08-26T15:47:20.070Z,4.50
2022-08-26T15:50:22.286Z,4.18
2022-08-26T15:53:25.426Z,4.18
2022-08-26T15:56:33.734Z,4.32
2022-08-26T15:59:36.695Z,5.47
2022-08-26T16:02:38.841Z,5.25
2022-08-26T16:05:43.625Z,6.30
2022-08-26T16:08:46.339Z,6.20
2022-08-26T16:11:48.401Z,5.82
2022-08-26T16:14:54.134Z,4.38
2022-08-26T16:17:59.632Z,5.93
2022-08-26T16:21:13.309Z,6.65
2022-08-26T16:24:16.986Z,4.97
2022-08-26T16:27:19.486Z,5.90
2022-08-26T16:30:25.238Z,11.60
2022-08-26T16:33:31.714Z,7.25
2022-08-26T16:36:35.089Z,3.67
2022-08-26T16:39:40.212Z,5.22
2022-08-26T16:42:48.957Z,5.00
2022-08-26T16:45:51.320Z,5.45
2022-08-26T16:48:58.072Z,5.43
2022-08-26T16:52:00.387Z,4.85
2022-08-26T16:55:02.499Z,4.35
2022-08-26T16:58:04.848Z,4.30
2022-08-26T17:01:07.527Z,5.53
2022-08-26T17:04:09.717Z,7.55
2022-08-26T17:07:12.430Z,6.28
2022-08-26T17:10:14.505Z,10.02
2022-08-26T17:13:16.729Z,9.15
2022-08-26T17:16:37.355Z,8.13
2022-08-26T17:19:41.758Z,12.35
2022-08-26T17:22:51.420Z,37.97
2022-08-26T17:25:53.603Z,10.52
2022-08-26T17:28:55.715Z,7.53
2022-08-26T17:31:57.863Z,5.25
2022-08-26T17:35:00.764Z,16.75
2022-08-26T17:38:03.021Z,12.77
2022-08-26T17:41:10.142Z,7.88
2022-08-26T17:44:12.567Z,7.15
2022-08-26T17:47:15.114Z,6.10
2022-08-26T17:50:18.896Z,6.00
2022-08-26T17:53:22.089Z,5.47
2022-08-26T17:56:27.008Z,5.88
2022-08-26T17:59:30.465Z,5.28
2022-08-26T18:02:32.893Z,5.57
2022-08-26T18:05:35.212Z,5.90
2022-08-26T18:08:39.178Z,5.57
2022-08-26T18:11:41.391Z,5.90
2022-08-26T18:14:44.238Z,5.95
2022-08-26T18:17:46.815Z,6.43
2022-08-26T18:20:51.998Z,4.60
2022-08-26T18:24:01.502Z,6.32
2022-08-26T18:27:04.019Z,6.25
2022-08-26T18:30:13.427Z,6.68
2022-08-26T18:33:19.524Z,6.55
2022-08-26T18:36:24.869Z,8.35
2022-08-26T18:39:26.860Z,6.38
2022-08-26T18:42:29.741Z,6.78
2022-08-26T18:45:31.775Z,9.65
2022-08-26T18:48:37.095Z,6.65
2022-08-26T18:51:39.545Z,7.35
2022-08-26T18:54:41.663Z,6.20
2022-08-26T18:57:43.702Z,5.80
2022-08-26T19:00:46.155Z,6.95
2022-08-26T19:03:49.469Z,5.45
2022-08-26T19:06:52.696Z,6.28
2022-08-26T19:09:54.839Z,6.82
2022-08-26T19:13:00.700Z,6.07
2022-08-26T19:16:04.991Z,5.55
2022-08-26T19:19:07.422Z,6.55
2022-08-26T19:22:09.576Z,5.72
2022-08-26T19:25:12.677Z,5.70
2022-08-26T19:28:16.568Z,6.43
2022-08-26T19:31:18.691Z,7.78
2022-08-26T19:34:21.132Z,6.07
2022-08-26T19:37:23.809Z,9.25
2022-08-26T19:40:26.001Z,6.97
2022-08-26T19:43:28.351Z,6.07
2022-08-26T19:46:36.556Z,6.75
2022-08-26T19:49:38.757Z,6.32
2022-08-26T19:52:42.175Z,6.25
2022-08-26T19:55:44.345Z,6.43
2022-08-26T19:58:46.641Z,5.60
2022-08-26T20:01:52.948Z,5.10
2022-08-26T20:05:06.141Z,4.82
2022-08-26T20:08:08.360Z,5.60
2022-08-26T20:11:23.454Z,5.53
2022-08-26T20:14:27.039Z,5.32
2022-08-26T20:17:29.158Z,5.15
2022-08-26T20:20:49.703Z,5.35
2022-08-26T20:24:02.244Z,5.70
2022-08-26T20:27:07.945Z,5.15
2022-08-26T20:30:11.065Z,5.95
2022-08-26T20:33:13.095Z,5.07
2022-08-26T20:36:15.724Z,6.20
2022-08-26T20:39:21.132Z,6.47
2022-08-26T20:42:23.195Z,6.15
2022-08-26T20:45:26.077Z,6.43
2022-08-26T20:48:28.301Z,4.65
2022-08-26T20:51:30.382Z,6.20
2022-08-26T20:54:32.655Z,4.82
2022-08-26T20:57:34.881Z,5.78
2022-08-26T21:00:38.838Z,6.18
2022-08-26T21:03:41.127Z,5.13
2022-08-26T21:06:47.270Z,4.07
2022-08-26T21:09:55.103Z,4.90
2022-08-26T21:12:58.017Z,4.90
2022-08-26T21:16:00.167Z,5.22
2022-08-26T21:19:04.225Z,4.63
2022-08-26T21:22:06.446Z,5.45
2022-08-26T21:25:09.246Z,4.65
2022-08-26T21:28:11.629Z,4.85
2022-08-26T21:31:17.237Z,5.15
2022-08-26T21:34:19.797Z,5.65
2022-08-26T21:37:21.929Z,5.50
2022-08-26T21:40:24.741Z,4.72
2022-08-26T21:43:35.564Z,4.80
2022-08-26T21:46:37.944Z,5.80
2022-08-26T21:49:40.029Z,4.88
2022-08-26T21:52:42.061Z,4.55
2022-08-26T21:55:46.030Z,4.57
2022-08-26T21:58:48.355Z,5.00
2022-08-26T22:01:51.413Z,5.40
2022-08-26T22:04:54.147Z,4.75
2022-08-26T22:07:56.489Z,4.68
2022-08-26T22:11:01.185Z,5.38
2022-08-26T22:14:03.310Z,4.32
2022-08-26T22:17:06.084Z,5.50
2022-08-26T22:20:16.726Z,5.93
2022-08-26T22:23:19.072Z,5.35
2022-08-26T22:26:25.515Z,5.18
2022-08-26T22:29:27.916Z,4.70
2022-08-26T22:32:30.012Z,6.13
2022-08-26T22:35:32.161Z,4.97
2022-08-26T22:38:34.790Z,6.30
2022-08-26T22:41:37.091Z,5.05
2022-08-26T22:44:39.361Z,5.07
2022-08-26T22:47:42.083Z,4.07
2022-08-26T22:50:46.025Z,5.60
2022-08-26T22:53:48.137Z,5.78
2022-08-26T22:56:50.312Z,4.60
2022-08-26T22:59:52.421Z,5.47
2022-08-26T23:02:55.033Z,5.35
2022-08-26T23:05:57.230Z,4.50
2022-08-26T23:08:59.362Z,4.63
2022-08-26T23:12:01.728Z,4.32
2022-08-26T23:15:10.077Z,4.65
2022-08-26T23:21:15.479Z,4.93
2022-08-26T23:24:18.523Z,4.68
2022-08-26T23:27:20.644Z,4.82
2022-08-26T23:30:26.541Z,6.00
2022-08-26T23:33:48.558Z,5.10
2022-08-26T23:36:51.254Z,4.82
2022-08-26T23:39:54.865Z,5.25
2022-08-26T23:42:58.775Z,4.60
2022-08-26T23:46:00.908Z,4.55
2022-08-26T23:49:04.284Z,5.07
2022-08-26T23:52:25.846Z,4.50
2022-08-26T23:55:28.174Z,5.38
2022-08-26T23:58:30.291Z,4.75
